createdAt,value
2019-04-20T00:01:19.953Z,54.50
2019-04-20T00:03:45.532Z,54.40
2019-04-20T00:06:15.300Z,54.60
2019-04-20T00:08:46.237Z,54.60
2019-04-20T00:11:25.487Z,54.50
2019-04-20T00:13:59.389Z,54.40
2019-04-20T00:16:21.064Z,54.50
2019-04-20T00:18:55.466Z,54.40
2019-04-20T00:21:43.057Z,54.40
2019-04-20T00:24:16.486Z,54.40
2019-04-20T00:27:08.589Z,54.50
2019-04-20T00:29:38.051Z,54.40
2019-04-20T00:31:59.376Z,54.40
2019-04-20T00:34:26.658Z,54.40
2019-04-20T00:36:51.950Z,54.40
2019-04-20T00:39:21.963Z,54.30
2019-04-20T00:41:58.722Z,54.40
2019-04-20T00:44:28.647Z,54.40
2019-04-20T00:47:08.496Z,54.30
2019-04-20T00:49:41.383Z,54.30
2019-04-20T00:52:24.258Z,54.30
2019-04-20T00:54:30.544Z,54.30
2019-04-20T00:57:13.373Z,54.30
2019-04-20T00:59:51.754Z,54.30
2019-04-20T01:02:18.002Z,54.40
2019-04-20T01:04:56.600Z,54.40
2019-04-20T01:10:05.278Z,54.40
2019-04-20T01:12:38.422Z,54.40
2019-04-20T01:15:11.779Z,54.30
2019-04-20T01:17:41.713Z,54.30
2019-04-20T01:20:12.109Z,54.30
2019-04-20T01:22:51.511Z,54.30
2019-04-20T01:25:22.114Z,54.30
2019-04-20T01:28:05.493Z,54.30
2019-04-20T01:30:28.505Z,54.30
2019-04-20T01:33:04.854Z,54.30
2019-04-20T01:35:40.945Z,54.30
2019-04-20T01:38:12.390Z,54.20
2019-04-20T01:40:25.704Z,54.30
2019-04-20T01:42:57.296Z,54.20
2019-04-20T01:45:32.858Z,54.20
2019-04-20T01:48:01.238Z,54.20
2019-04-20T01:50:33.719Z,54.20
2019-04-20T01:53:14.904Z,54.20
2019-04-20T01:55:51.971Z,54.30
2019-04-20T01:58:33.718Z,54.30
2019-04-20T02:00:45.965Z,54.40
2019-04-20T02:03:39.666Z,54.40
2019-04-20T02:06:16.766Z,54.40
2019-04-20T02:08:44.145Z,54.50
2019-04-20T02:11:38.386Z,54.40
2019-04-20T02:14:08.650Z,54.40
2019-04-20T02:16:42.721Z,54.40
2019-04-20T02:19:23.768Z,54.40
2019-04-20T02:21:55.448Z,54.40
2019-04-20T02:24:13.130Z,54.40
2019-04-20T02:26:43.232Z,54.40
2019-04-20T02:29:37.332Z,54.40
2019-04-20T02:34:55.447Z,54.50
2019-04-20T02:40:01.987Z,54.40
2019-04-20T02:42:34.092Z,54.40
2019-04-20T02:45:08.921Z,54.40
2019-04-20T02:50:08.385Z,54.40
2019-04-20T02:52:50.587Z,54.40
2019-04-20T02:55:09.279Z,54.40
2019-04-20T02:57:47.884Z,54.30
2019-04-20T03:02:27.157Z,54.30
2019-04-20T03:04:51.244Z,54.40
2019-04-20T03:07:27.993Z,54.30
2019-04-20T03:10:08.370Z,54.40
2019-04-20T03:12:38.578Z,54.30
2019-04-20T03:15:04.844Z,54.30
2019-04-20T03:17:46.478Z,54.30
2019-04-20T03:20:18.840Z,54.30
2019-04-20T03:23:05.156Z,54.20
2019-04-20T03:25:36.645Z,54.30
2019-04-20T03:28:10.308Z,54.30
2019-04-20T03:33:30.978Z,54.30
2019-04-20T03:35:51.197Z,54.30
2019-04-20T03:38:14.259Z,54.30
2019-04-20T03:40:39.927Z,54.40
2019-04-20T03:43:01.115Z,54.30
2019-04-20T03:45:41.610Z,54.30
2019-04-20T03:48:17.162Z,54.30
2019-04-20T03:51:00.186Z,54.30
2019-04-20T03:53:29.866Z,54.30
2019-04-20T03:55:56.664Z,54.40
2019-04-20T03:58:37.638Z,54.40
2019-04-20T04:01:14.796Z,54.40
2019-04-20T04:03:53.746Z,54.40
2019-04-20T04:06:17.807Z,54.40
2019-04-20T04:08:55.804Z,54.40
2019-04-20T04:11:27.000Z,54.30
2019-04-20T04:13:43.803Z,54.40
2019-04-20T04:16:17.346Z,54.40
2019-04-20T04:18:49.393Z,54.40
2019-04-20T04:21:27.476Z,54.40
2019-04-20T04:24:02.402Z,54.40
2019-04-20T04:26:34.157Z,54.40
2019-04-20T04:29:13.583Z,54.40
2019-04-20T04:31:45.583Z,54.40
2019-04-20T04:34:16.522Z,54.40
2019-04-20T04:36:49.936Z,54.40
2019-04-20T04:39:22.522Z,54.40
2019-04-20T04:41:57.946Z,54.40
2019-04-20T04:44:15.254Z,54.40
2019-04-20T04:46:40.171Z,54.40
2019-04-20T04:49:14.938Z,54.40
2019-04-20T04:51:44.677Z,54.40
2019-04-20T04:54:16.778Z,54.40
2019-04-20T04:56:39.737Z,54.40
2019-04-20T04:59:10.680Z,54.40
2019-04-20T05:01:42.084Z,54.30
2019-04-20T05:04:33.977Z,54.30
2019-04-20T05:06:59.876Z,54.40
2019-04-20T05:09:17.178Z,54.30
2019-04-20T05:11:49.864Z,54.40
2019-04-20T05:14:24.435Z,54.40
2019-04-20T05:17:10.166Z,54.40
2019-04-20T05:19:41.582Z,54.40
2019-04-20T05:22:15.507Z,54.40
2019-04-20T05:24:42.707Z,54.40
2019-04-20T05:27:33.482Z,54.40
2019-04-20T05:29:42.848Z,54.40
2019-04-20T05:32:17.923Z,54.40
2019-04-20T05:35:12.084Z,54.40
2019-04-20T05:37:45.786Z,54.40
2019-04-20T05:40:11.921Z,54.40
2019-04-20T05:43:01.911Z,54.40
2019-04-20T05:45:25.200Z,54.40
2019-04-20T05:47:59.112Z,54.40
2019-04-20T05:50:36.496Z,54.50
2019-04-20T05:53:07.245Z,54.50
2019-04-20T05:55:39.653Z,54.60
2019-04-20T05:58:10.023Z,54.60
2019-04-20T06:00:47.754Z,54.50
2019-04-20T06:03:15.250Z,54.50
2019-04-20T06:05:54.835Z,54.60
2019-04-20T06:08:32.047Z,54.60
2019-04-20T06:13:33.647Z,54.50
2019-04-20T06:16:18.368Z,54.60
2019-04-20T06:19:05.467Z,54.60
2019-04-20T06:24:10.640Z,54.60
2019-04-20T06:27:01.020Z,54.70
2019-04-20T06:29:23.701Z,54.60
2019-04-20T06:31:57.416Z,54.60
2019-04-20T06:37:06.834Z,54.70
2019-04-20T06:39:37.025Z,54.70
2019-04-20T06:42:15.233Z,54.70
2019-04-20T06:44:39.765Z,54.70
2019-04-20T06:47:16.360Z,54.60
2019-04-20T06:49:38.015Z,54.60
2019-04-20T06:52:32.565Z,54.60
2019-04-20T06:55:05.250Z,54.60
2019-04-20T06:57:45.387Z,54.70
2019-04-20T07:00:15.351Z,54.70
2019-04-20T07:03:01.871Z,54.70
2019-04-20T07:05:18.948Z,54.70
2019-04-20T07:08:02.008Z,54.60
2019-04-20T07:10:37.641Z,54.70
2019-04-20T07:12:49.362Z,54.60
2019-04-20T07:15:22.857Z,54.60
2019-04-20T07:18:06.145Z,54.60
2019-04-20T07:20:49.106Z,54.60
2019-04-20T07:23:18.426Z,54.60
2019-04-20T07:25:42.315Z,54.60
2019-04-20T07:28:12.811Z,54.70
2019-04-20T07:30:45.141Z,54.60
2019-04-20T07:33:15.716Z,54.60
2019-04-20T07:35:46.544Z,54.60
2019-04-20T07:38:30.857Z,54.60
2019-04-20T07:40:42.017Z,54.60
2019-04-20T07:43:19.801Z,54.70
2019-04-20T07:45:53.160Z,54.70
2019-04-20T07:48:23.539Z,54.60
2019-04-20T07:50:46.113Z,54.70
2019-04-20T07:53:22.159Z,54.60
2019-04-20T07:56:00.787Z,54.80
2019-04-20T07:58:22.639Z,55.20
2019-04-20T08:01:10.354Z,55.10
2019-04-20T08:03:42.810Z,55.20
2019-04-20T08:06:17.500Z,55.30
2019-04-20T08:08:53.105Z,55.40
2019-04-20T08:11:32.159Z,55.60
2019-04-20T08:14:06.186Z,55.60
2019-04-20T08:16:47.078Z,55.80
2019-04-20T08:19:07.883Z,55.80
2019-04-20T08:21:55.155Z,55.90
2019-04-20T08:24:07.453Z,56.00
2019-04-20T08:26:26.947Z,55.90
2019-04-20T08:29:14.353Z,55.90
2019-04-20T08:31:49.018Z,55.90
2019-04-20T08:34:33.667Z,55.80
2019-04-20T08:37:03.162Z,55.80
2019-04-20T08:42:16.423Z,56.20
2019-04-20T08:44:56.987Z,56.20
2019-04-20T08:47:18.291Z,56.40
2019-04-20T08:49:41.042Z,56.60
2019-04-20T08:52:22.981Z,56.70
2019-04-20T08:54:37.904Z,56.60
2019-04-20T08:56:58.451Z,57.10
2019-04-20T08:59:25.730Z,57.90
2019-04-20T09:01:58.957Z,57.90
2019-04-20T09:04:38.024Z,58.00
2019-04-20T09:07:09.532Z,58.20
2019-04-20T09:09:49.102Z,58.60
2019-04-20T09:12:19.121Z,59.00
2019-04-20T09:14:37.962Z,59.70
2019-04-20T09:17:22.348Z,60.50
2019-04-20T09:19:52.288Z,60.70
2019-04-20T09:22:46.905Z,61.60
2019-04-20T09:25:42.835Z,61.20
2019-04-20T09:27:47.598Z,61.70
2019-04-20T09:30:25.760Z,62.20
2019-04-20T09:33:14.335Z,62.00
2019-04-20T09:35:43.444Z,62.30
2019-04-20T09:38:13.495Z,62.30
2019-04-20T09:40:51.377Z,62.90
2019-04-20T09:43:08.794Z,62.30
2019-04-20T09:45:46.222Z,62.20
2019-04-20T09:48:19.285Z,61.70
2019-04-20T09:51:07.931Z,61.40
2019-04-20T09:53:29.446Z,61.50
2019-04-20T09:56:01.853Z,60.90
2019-04-20T09:58:32.043Z,60.60
2019-04-20T10:01:01.758Z,60.30
2019-04-20T10:03:22.645Z,60.20
2019-04-20T10:05:53.766Z,45.90
2019-04-20T10:08:23.967Z,53.40
2019-04-20T10:10:54.415Z,55.30
2019-04-20T10:13:27.149Z,56.00
2019-04-20T10:15:57.720Z,56.60
2019-04-20T10:18:28.038Z,57.00
2019-04-20T10:20:58.065Z,56.90
2019-04-20T10:23:28.052Z,57.50
2019-04-20T10:25:58.600Z,57.50
2019-04-20T10:28:29.750Z,57.50
2019-04-20T10:30:59.826Z,57.10
2019-04-20T10:33:31.253Z,57.30
2019-04-20T10:36:01.513Z,57.10
2019-04-20T10:38:34.215Z,56.40
2019-04-20T10:41:12.993Z,56.00
2019-04-20T10:43:36.392Z,56.50
2019-04-20T10:46:06.973Z,55.80
2019-04-20T10:48:41.741Z,55.30
2019-04-20T10:51:08.666Z,54.80
2019-04-20T10:53:38.681Z,55.20
2019-04-20T10:56:09.593Z,54.60
2019-04-20T10:58:40.030Z,54.50
2019-04-20T11:01:11.608Z,54.50
2019-04-20T11:03:42.630Z,54.70
2019-04-20T11:06:12.732Z,55.80
2019-04-20T11:08:42.668Z,56.20
2019-04-20T11:11:22.503Z,56.20
2019-04-20T11:13:45.522Z,56.60
2019-04-20T11:16:15.807Z,56.20
2019-04-20T11:18:45.774Z,56.20
2019-04-20T11:21:17.392Z,56.40
2019-04-20T11:23:47.434Z,56.00
2019-04-20T11:26:18.118Z,55.60
2019-04-20T11:28:48.421Z,55.60
2019-04-20T11:31:18.261Z,54.90
2019-04-20T11:33:48.139Z,55.70
2019-04-20T11:36:19.167Z,56.00
2019-04-20T11:38:49.127Z,55.90
2019-04-20T11:41:25.643Z,56.20
2019-04-20T11:43:51.550Z,56.30
2019-04-20T11:46:22.822Z,56.30
2019-04-20T11:48:52.764Z,56.40
2019-04-20T11:51:23.388Z,56.50
2019-04-20T11:53:54.379Z,56.60
2019-04-20T11:56:29.433Z,56.60
2019-04-20T11:58:56.797Z,56.70
2019-04-20T12:01:37.975Z,56.70
2019-04-20T12:04:20.100Z,56.60
2019-04-20T12:06:34.899Z,56.50
2019-04-20T12:09:08.029Z,56.50
2019-04-20T12:11:53.476Z,56.50
2019-04-20T12:14:10.374Z,56.50
2019-04-20T12:16:41.681Z,56.50
2019-04-20T12:19:12.691Z,56.40
2019-04-20T12:21:42.851Z,56.40
2019-04-20T12:24:14.210Z,56.40
2019-04-20T12:26:44.801Z,56.40
2019-04-20T12:29:16.109Z,56.30
2019-04-20T12:31:51.150Z,56.30
2019-04-20T12:34:20.158Z,56.30
2019-04-20T12:36:51.183Z,56.20
2019-04-20T12:39:22.465Z,56.20
2019-04-20T12:41:56.477Z,56.30
2019-04-20T12:44:23.965Z,56.20
2019-04-20T12:46:54.029Z,56.10
2019-04-20T12:49:25.348Z,56.10
2019-04-20T12:51:59.399Z,56.20
2019-04-20T12:54:27.063Z,56.10
2019-04-20T12:56:58.465Z,56.00
2019-04-20T12:59:29.661Z,56.00
2019-04-20T13:01:59.749Z,56.00
2019-04-20T13:04:30.157Z,56.00
2019-04-20T13:07:01.761Z,56.00
2019-04-20T13:09:34.960Z,55.50
2019-04-20T13:12:10.194Z,55.90
2019-04-20T13:15:18.260Z,55.90
2019-04-20T13:17:51.914Z,55.90
2019-04-20T13:20:19.965Z,55.90
2019-04-20T13:22:50.930Z,56.00
2019-04-20T13:25:21.076Z,55.90
2019-04-20T13:27:51.031Z,55.90
2019-04-20T13:30:21.744Z,55.80
2019-04-20T13:32:52.002Z,55.80
2019-04-20T13:35:22.544Z,56.40
2019-04-20T13:37:54.009Z,55.80
2019-04-20T13:40:24.180Z,55.90
2019-04-20T13:42:54.160Z,55.80
2019-04-20T13:45:24.713Z,55.80
2019-04-20T13:47:55.063Z,55.80
2019-04-20T13:50:26.255Z,55.80
2019-04-20T13:52:56.576Z,55.90
2019-04-20T13:55:27.296Z,55.90
2019-04-20T13:58:00.066Z,55.80
2019-04-20T14:00:45.064Z,55.80
2019-04-20T14:03:16.763Z,55.80
2019-04-20T14:05:46.943Z,55.80
2019-04-20T14:08:21.128Z,55.90
2019-04-20T14:10:53.355Z,55.90
2019-04-20T14:13:24.499Z,55.80
2019-04-20T14:15:55.396Z,55.80
2019-04-20T14:18:26.918Z,55.70
2019-04-20T14:20:58.253Z,55.70
2019-04-20T14:23:28.369Z,55.80
2019-04-20T14:25:58.769Z,55.70
2019-04-20T14:28:29.128Z,55.60
2019-04-20T14:30:59.186Z,55.70
2019-04-20T14:33:29.116Z,55.60
2019-04-20T14:35:59.107Z,55.50
2019-04-20T14:38:30.587Z,55.40
2019-04-20T14:41:02.164Z,55.30
2019-04-20T14:43:33.543Z,55.30
2019-04-20T14:46:05.036Z,55.20
2019-04-20T14:48:36.524Z,55.20
2019-04-20T14:51:07.711Z,55.80
2019-04-20T14:53:37.890Z,55.10
2019-04-20T14:56:07.844Z,55.20
2019-04-20T14:58:41.381Z,55.20
2019-04-20T15:01:30.302Z,55.10
2019-04-20T15:04:06.816Z,55.00
2019-04-20T15:06:36.157Z,55.00
2019-04-20T15:09:08.596Z,55.00
2019-04-20T15:11:41.686Z,54.90
2019-04-20T15:14:11.027Z,54.90
2019-04-20T15:16:42.537Z,54.80
2019-04-20T15:19:15.597Z,54.80
2019-04-20T15:21:47.486Z,54.70
2019-04-20T15:24:17.757Z,54.70
2019-04-20T15:26:48.768Z,54.70
2019-04-20T15:29:20.047Z,54.70
2019-04-20T15:31:50.169Z,54.70
2019-04-20T15:34:21.209Z,54.60
2019-04-20T15:36:51.970Z,54.40
2019-04-20T15:39:23.249Z,54.60
2019-04-20T15:41:53.590Z,54.70
2019-04-20T15:44:25.047Z,54.70
2019-04-20T15:46:55.343Z,54.70
2019-04-20T15:49:26.298Z,55.30
2019-04-20T15:51:57.603Z,54.60
2019-04-20T15:54:27.620Z,54.60
2019-04-20T15:57:03.960Z,54.50
2019-04-20T15:59:30.675Z,54.50
2019-04-20T16:02:03.118Z,54.40
2019-04-20T16:04:50.655Z,54.30
2019-04-20T16:07:21.433Z,54.40
2019-04-20T16:09:51.765Z,54.30
2019-04-20T16:12:22.868Z,54.20
2019-04-20T16:14:53.511Z,54.30
2019-04-20T16:17:31.110Z,54.30
2019-04-20T16:20:01.343Z,54.20
2019-04-20T16:22:28.901Z,54.20
2019-04-20T16:25:07.582Z,54.20
2019-04-20T16:27:38.111Z,54.20
2019-04-20T16:30:09.704Z,54.30
2019-04-20T16:32:40.690Z,54.30
2019-04-20T16:35:12.410Z,54.30
2019-04-20T16:37:42.502Z,54.30
2019-04-20T16:40:13.913Z,54.40
2019-04-20T16:42:45.427Z,54.30
2019-04-20T16:45:17.069Z,54.30
2019-04-20T16:47:48.198Z,54.30
2019-04-20T16:50:19.298Z,54.40
2019-04-20T16:52:50.673Z,50.90
2019-04-20T16:55:21.117Z,41.40
2019-04-20T16:57:52.927Z,40.20
2019-04-20T17:00:23.267Z,36.10
2019-04-20T17:02:54.351Z,33.20
2019-04-20T17:05:25.716Z,32.20
2019-04-20T17:08:00.708Z,32.10
2019-04-20T17:10:31.186Z,30.00
2019-04-20T17:13:01.910Z,32.60
2019-04-20T17:15:31.965Z,31.50
2019-04-20T17:18:03.341Z,32.60
2019-04-20T17:20:34.609Z,32.90
2019-04-20T17:23:07.024Z,32.70
2019-04-20T17:25:37.660Z,32.50
2019-04-20T17:28:10.998Z,32.60
2019-04-20T17:30:44.481Z,32.80
2019-04-20T17:33:32.552Z,32.30
2019-04-20T17:36:10.885Z,32.60
2019-04-20T17:38:40.972Z,32.80
2019-04-20T17:41:23.649Z,33.00
2019-04-20T17:43:57.580Z,32.40
2019-04-20T17:46:23.755Z,33.50
2019-04-20T17:48:59.792Z,33.00
2019-04-20T17:51:34.410Z,33.20
2019-04-20T17:53:52.757Z,33.40
2019-04-20T17:56:17.497Z,33.60
2019-04-20T17:58:50.131Z,33.60
2019-04-20T18:01:49.980Z,33.90
2019-04-20T18:04:49.560Z,33.80
2019-04-20T18:07:01.021Z,34.20
2019-04-20T18:09:44.549Z,34.30
2019-04-20T18:11:57.724Z,34.90
2019-04-20T18:14:39.384Z,35.40
2019-04-20T18:17:25.894Z,35.90
2019-04-20T18:19:52.228Z,36.50
2019-04-20T18:22:23.581Z,37.60
2019-04-20T18:25:12.420Z,38.10
2019-04-20T18:27:41.189Z,39.10
2019-04-20T18:30:15.574Z,39.50
2019-04-20T18:32:35.768Z,40.20
2019-04-20T18:35:10.317Z,41.20
2019-04-20T18:37:44.100Z,40.90
2019-04-20T18:40:14.899Z,41.10
2019-04-20T18:42:45.723Z,40.80
2019-04-20T18:45:32.541Z,41.20
2019-04-20T18:48:06.589Z,42.30
2019-04-20T18:50:27.731Z,42.50
2019-04-20T18:52:51.761Z,42.20
2019-04-20T18:55:30.385Z,42.40
2019-04-20T18:57:53.551Z,42.60
2019-04-20T19:00:30.296Z,42.30
2019-04-20T19:03:01.351Z,42.60
2019-04-20T19:05:29.594Z,42.80
2019-04-20T19:08:04.616Z,43.10
2019-04-20T19:10:36.374Z,43.70
2019-04-20T19:13:06.714Z,44.00
2019-04-20T19:15:55.256Z,44.00
2019-04-20T19:18:45.241Z,44.70
2019-04-20T19:21:01.278Z,44.60
2019-04-20T19:23:35.385Z,44.20
2019-04-20T19:26:09.620Z,44.00
2019-04-20T19:28:44.346Z,43.80
2019-04-20T19:31:19.409Z,43.80
2019-04-20T19:34:03.416Z,43.70
2019-04-20T19:36:20.591Z,43.70
2019-04-20T19:38:58.025Z,44.00
2019-04-20T19:41:30.656Z,43.90
2019-04-20T19:43:54.961Z,44.70
2019-04-20T19:46:44.281Z,44.90
2019-04-20T19:48:56.066Z,44.70
2019-04-20T19:51:43.056Z,44.80
2019-04-20T19:54:13.150Z,44.80
2019-04-20T19:56:44.276Z,45.00
2019-04-20T19:59:09.579Z,44.50
2019-04-20T20:01:27.589Z,44.40
2019-04-20T20:04:00.929Z,44.50
2019-04-20T20:06:37.861Z,44.40
2019-04-20T20:09:06.789Z,44.10
2019-04-20T20:11:39.184Z,44.00
2019-04-20T20:14:08.146Z,43.70
2019-04-20T20:16:56.441Z,43.30
2019-04-20T20:19:22.994Z,43.70
2019-04-20T20:21:55.521Z,43.60
2019-04-20T20:24:14.349Z,44.00
2019-04-20T20:26:52.604Z,45.10
2019-04-20T20:29:27.701Z,44.00
2019-04-20T20:32:03.365Z,44.00
2019-04-20T20:34:29.063Z,43.70
2019-04-20T20:37:00.058Z,43.60
2019-04-20T20:39:29.604Z,44.00
2019-04-20T20:42:05.985Z,43.30
2019-04-20T20:44:40.240Z,43.90
2019-04-20T20:47:12.905Z,43.80
2019-04-20T20:49:56.723Z,45.00
2019-04-20T20:52:21.918Z,46.60
2019-04-20T20:54:47.718Z,47.10
2019-04-20T20:57:11.500Z,47.50
2019-04-20T20:59:49.225Z,47.30
2019-04-20T21:02:19.301Z,47.50
2019-04-20T21:04:41.758Z,47.70
2019-04-20T21:07:12.864Z,47.80
2019-04-20T21:09:43.063Z,47.90
2019-04-20T21:12:16.298Z,48.10
2019-04-20T21:14:45.904Z,48.60
2019-04-20T21:17:19.958Z,48.30
2019-04-20T21:20:07.265Z,49.40
2019-04-20T21:22:41.307Z,49.10
2019-04-20T21:24:53.205Z,49.00
2019-04-20T21:27:23.913Z,49.30
2019-04-20T21:29:56.926Z,49.20
2019-04-20T21:32:26.231Z,49.20
2019-04-20T21:35:01.253Z,49.30
2019-04-20T21:37:28.923Z,49.50
2019-04-20T21:40:11.630Z,49.80
2019-04-20T21:42:41.300Z,49.80
2019-04-20T21:45:10.552Z,50.80
2019-04-20T21:47:38.394Z,50.90
2019-04-20T21:50:27.108Z,51.20
2019-04-20T21:52:46.087Z,51.60
2019-04-20T21:55:12.103Z,52.00
2019-04-20T21:57:46.193Z,52.20
2019-04-20T22:00:25.000Z,52.30
2019-04-20T22:02:56.984Z,52.40
2019-04-20T22:05:25.244Z,52.40
2019-04-20T22:07:57.654Z,52.60
2019-04-20T22:10:30.897Z,52.60
2019-04-20T22:13:00.972Z,52.70
2019-04-20T22:15:34.513Z,52.80
2019-04-20T22:18:09.113Z,52.90
2019-04-20T22:20:42.464Z,53.00
2019-04-20T22:23:15.779Z,53.10
2019-04-20T22:25:52.843Z,53.30
2019-04-20T22:28:08.780Z,53.30
2019-04-20T22:30:39.889Z,53.40
2019-04-20T22:33:12.155Z,53.50
2019-04-20T22:35:48.183Z,53.70
2019-04-20T22:38:24.696Z,53.80
2019-04-20T22:40:57.493Z,53.80
2019-04-20T22:43:31.610Z,53.90
2019-04-20T22:45:59.078Z,54.00
2019-04-20T22:48:29.216Z,54.00
2019-04-20T22:51:16.047Z,54.10
2019-04-20T22:53:45.289Z,54.30
2019-04-20T22:56:22.824Z,54.40
2019-04-20T22:58:43.495Z,54.50
2019-04-20T23:01:17.844Z,54.60
2019-04-20T23:03:37.297Z,54.70
2019-04-20T23:06:07.320Z,54.70
2019-04-20T23:08:38.301Z,54.80
2019-04-20T23:11:14.903Z,54.90
2019-04-20T23:13:43.268Z,54.90
2019-04-20T23:16:11.649Z,55.10
2019-04-20T23:18:42.204Z,55.00
2019-04-20T23:21:15.454Z,55.20
2019-04-20T23:23:44.068Z,55.20
2019-04-20T23:26:19.342Z,55.20
2019-04-20T23:28:49.486Z,55.30
2019-04-20T23:31:20.585Z,55.30
2019-04-20T23:33:49.957Z,55.40
2019-04-20T23:36:29.263Z,55.40
2019-04-20T23:38:55.452Z,56.00
2019-04-20T23:41:23.830Z,55.50
2019-04-20T23:44:01.734Z,55.50
2019-04-20T23:46:45.373Z,56.30
2019-04-20T23:49:25.510Z,55.60
2019-04-20T23:52:09.514Z,55.60
2019-04-20T23:54:27.417Z,55.70
2019-04-20T23:56:55.525Z,55.60
2019-04-20T23:59:32.446Z,55.80
